sensor_id;sensor_type;location;lat;lon;timestamp;P1;durP1;ratioP1;P2;durP2;ratioP2
4206;SDS011;2117;47.972;7.830;2022-08-01T03:32:19;4.47;;;3.57;;
4206;SDS011;2117;47.972;7.830;2022-08-01T03:34:46;8.03;;;3.77;;
4206;SDS011;2117;47.972;7.830;2022-08-01T03:37:54;6.10;;;3.50;;
4206;SDS011;2117;47.972;7.830;2022-08-01T03:40:08;5.50;;;4.10;;
4206;SDS011;2117;47.972;7.830;2022-08-01T03:42:58;4.20;;;3.80;;
4206;SDS011;2117;47.972;7.830;2022-08-01T03:45:31;4.37;;;3.97;;
4206;SDS011;2117;47.972;7.830;2022-08-01T03:48:03;5.90;;;3.67;;
4206;SDS011;2117;47.972;7.830;2022-08-01T03:50:34;4.43;;;3.70;;
4206;SDS011;2117;47.972;7.830;2022-08-01T03:53:02;4.90;;;3.83;;
4206;SDS011;2117;47.972;7.830;2022-08-01T03:55:30;7.80;;;3.80;;
4206;SDS011;2117;47.972;7.830;2022-08-01T03:57:58;4.27;;;3.40;;
4206;SDS011;2117;47.972;7.830;2022-08-01T04:00:25;5.30;;;4.07;;
4206;SDS011;2117;47.972;7.830;2022-08-01T04:02:51;5.37;;;4.00;;
4206;SDS011;2117;47.972;7.830;2022-08-01T04:05:18;5.53;;;3.70;;
4206;SDS011;2117;47.972;7.830;2022-08-01T04:07:47;4.40;;;4.00;;
4206;SDS011;2117;47.972;7.830;2022-08-01T04:10:20;5.00;;;3.73;;
4206;SDS011;2117;47.972;7.830;2022-08-01T04:12:49;4.20;;;3.80;;
4206;SDS011;2117;47.972;7.830;2022-08-01T04:15:14;5.70;;;4.70;;
4206;SDS011;2117;47.972;7.830;2022-08-01T04:17:40;4.70;;;3.80;;
4206;SDS011;2117;47.972;7.830;2022-08-01T04:20:06;8.07;;;4.10;;
4206;SDS011;2117;47.972;7.830;2022-08-01T04:22:32;3.90;;;3.17;;
4206;SDS011;2117;47.972;7.830;2022-08-01T04:24:58;4.97;;;4.23;;
4206;SDS011;2117;47.972;7.830;2022-08-01T04:27:31;4.70;;;4.20;;
4206;SDS011;2117;47.972;7.830;2022-08-01T04:30:00;5.03;;;3.87;;
4206;SDS011;2117;47.972;7.830;2022-08-01T04:32:27;5.03;;;3.90;;
4206;SDS011;2117;47.972;7.830;2022-08-01T04:34:58;7.20;;;4.33;;
4206;SDS011;2117;47.972;7.830;2022-08-01T04:37:27;5.83;;;3.00;;
4206;SDS011;2117;47.972;7.830;2022-08-01T04:39:54;4.57;;;3.40;;
4206;SDS011;2117;47.972;7.830;2022-08-01T04:42:20;5.30;;;3.27;;
4206;SDS011;2117;47.972;7.830;2022-08-01T04:44:47;4.63;;;3.30;;
4206;SDS011;2117;47.972;7.830;2022-08-01T04:47:12;5.70;;;3.80;;
4206;SDS011;2117;47.972;7.830;2022-08-01T04:49:39;5.97;;;3.40;;
4206;SDS011;2117;47.972;7.830;2022-08-01T04:52:06;6.00;;;3.97;;
4206;SDS011;2117;47.972;7.830;2022-08-01T04:54:33;6.70;;;4.57;;
4206;SDS011;2117;47.972;7.830;2022-08-01T04:57:06;8.47;;;4.33;;
4206;SDS011;2117;47.972;7.830;2022-08-01T04:59:32;5.13;;;4.40;;
4206;SDS011;2117;47.972;7.830;2022-08-01T05:02:10;4.33;;;3.50;;
4206;SDS011;2117;47.972;7.830;2022-08-01T05:04:37;6.00;;;4.53;;
4206;SDS011;2117;47.972;7.830;2022-08-01T05:07:04;6.60;;;4.10;;
4206;SDS011;2117;47.972;7.830;2022-08-01T05:09:31;5.90;;;3.97;;
4206;SDS011;2117;47.972;7.830;2022-08-01T05:11:58;5.40;;;3.80;;
4206;SDS011;2117;47.972;7.830;2022-08-01T05:14:25;5.40;;;4.07;;
4206;SDS011;2117;47.972;7.830;2022-08-01T05:16:51;7.33;;;4.57;;
4206;SDS011;2117;47.972;7.830;2022-08-01T05:19:17;5.60;;;4.50;;
4206;SDS011;2117;47.972;7.830;2022-08-01T05:21:43;5.00;;;3.90;;
4206;SDS011;2117;47.972;7.830;2022-08-01T05:24:09;7.60;;;5.07;;
4206;SDS011;2117;47.972;7.830;2022-08-01T05:26:34;5.23;;;3.90;;
4206;SDS011;2117;47.972;7.830;2022-08-01T05:29:00;6.80;;;4.20;;
4206;SDS011;2117;47.972;7.830;2022-08-01T05:31:26;5.40;;;4.23;;
4206;SDS011;2117;47.972;7.830;2022-08-01T05:33:52;7.90;;;4.70;;
4206;SDS011;2117;47.972;7.830;2022-08-01T05:36:18;5.37;;;4.07;;
4206;SDS011;2117;47.972;7.830;2022-08-01T05:38:44;5.57;;;3.90;;
4206;SDS011;2117;47.972;7.830;2022-08-01T05:41:10;6.23;;;4.53;;
4206;SDS011;2117;47.972;7.830;2022-08-01T05:43:35;5.33;;;3.73;;
4206;SDS011;2117;47.972;7.830;2022-08-01T05:46:01;5.13;;;4.03;;
4206;SDS011;2117;47.972;7.830;2022-08-01T05:48:27;6.07;;;4.60;;
4206;SDS011;2117;47.972;7.830;2022-08-01T05:50:53;8.20;;;4.43;;
4206;SDS011;2117;47.972;7.830;2022-08-01T05:53:19;8.50;;;4.67;;
4206;SDS011;2117;47.972;7.830;2022-08-01T05:55:44;6.47;;;5.00;;
4206;SDS011;2117;47.972;7.830;2022-08-01T05:58:10;6.13;;;4.43;;
4206;SDS011;2117;47.972;7.830;2022-08-01T06:00:36;4.70;;;4.20;;
4206;SDS011;2117;47.972;7.830;2022-08-01T06:03:01;5.83;;;4.03;;
4206;SDS011;2117;47.972;7.830;2022-08-01T06:05:27;6.73;;;4.40;;
4206;SDS011;2117;47.972;7.830;2022-08-01T06:07:53;8.03;;;3.87;;
4206;SDS011;2117;47.972;7.830;2022-08-01T06:10:19;5.20;;;4.30;;
4206;SDS011;2117;47.972;7.830;2022-08-01T06:12:44;6.40;;;4.37;;
4206;SDS011;2117;47.972;7.830;2022-08-01T06:15:10;4.67;;;4.00;;
4206;SDS011;2117;47.972;7.830;2022-08-01T06:17:36;6.53;;;4.70;;
4206;SDS011;2117;47.972;7.830;2022-08-01T06:20:02;7.37;;;4.53;;
4206;SDS011;2117;47.972;7.830;2022-08-01T06:22:28;7.60;;;4.50;;
4206;SDS011;2117;47.972;7.830;2022-08-01T06:24:54;6.23;;;4.53;;
4206;SDS011;2117;47.972;7.830;2022-08-01T06:27:19;6.73;;;4.63;;
4206;SDS011;2117;47.972;7.830;2022-08-01T06:29:45;5.47;;;4.83;;
4206;SDS011;2117;47.972;7.830;2022-08-01T06:32:11;5.10;;;4.07;;
4206;SDS011;2117;47.972;7.830;2022-08-01T06:34:36;7.60;;;4.03;;
4206;SDS011;2117;47.972;7.830;2022-08-01T06:37:02;4.70;;;4.10;;
4206;SDS011;2117;47.972;7.830;2022-08-01T06:39:28;7.60;;;4.17;;
4206;SDS011;2117;47.972;7.830;2022-08-01T06:41:53;11.23;;;5.20;;
4206;SDS011;2117;47.972;7.830;2022-08-01T06:44:19;5.47;;;4.60;;
4206;SDS011;2117;47.972;7.830;2022-08-01T06:46:44;6.60;;;5.20;;
4206;SDS011;2117;47.972;7.830;2022-08-01T06:49:10;9.43;;;4.53;;
4206;SDS011;2117;47.972;7.830;2022-08-01T06:51:35;4.73;;;3.90;;
4206;SDS011;2117;47.972;7.830;2022-08-01T06:54:01;5.00;;;4.43;;
4206;SDS011;2117;47.972;7.830;2022-08-01T06:56:27;9.93;;;4.67;;
4206;SDS011;2117;47.972;7.830;2022-08-01T06:58:52;7.03;;;4.90;;
4206;SDS011;2117;47.972;7.830;2022-08-01T07:01:21;8.37;;;5.30;;
4206;SDS011;2117;47.972;7.830;2022-08-01T07:03:47;5.80;;;4.23;;
4206;SDS011;2117;47.972;7.830;2022-08-01T07:06:13;5.30;;;4.80;;
4206;SDS011;2117;47.972;7.830;2022-08-01T07:08:39;7.47;;;4.63;;
4206;SDS011;2117;47.972;7.830;2022-08-01T07:11:05;7.07;;;4.90;;
4206;SDS011;2117;47.972;7.830;2022-08-01T07:13:31;5.93;;;5.03;;
4206;SDS011;2117;47.972;7.830;2022-08-01T07:15:57;4.87;;;4.37;;
4206;SDS011;2117;47.972;7.830;2022-08-01T07:18:23;5.10;;;4.40;;
4206;SDS011;2117;47.972;7.830;2022-08-01T07:20:49;7.40;;;4.27;;
4206;SDS011;2117;47.972;7.830;2022-08-01T07:23:15;6.83;;;5.00;;
4206;SDS011;2117;47.972;7.830;2022-08-01T07:25:41;7.03;;;4.40;;
4206;SDS011;2117;47.972;7.830;2022-08-01T07:28:07;7.17;;;4.50;;
4206;SDS011;2117;47.972;7.830;2022-08-01T07:30:33;5.93;;;3.80;;
4206;SDS011;2117;47.972;7.830;2022-08-01T07:32:59;6.73;;;4.20;;
4206;SDS011;2117;47.972;7.830;2022-08-01T07:35:25;9.87;;;4.53;;
4206;SDS011;2117;47.972;7.830;2022-08-01T07:37:50;5.77;;;4.60;;
4206;SDS011;2117;47.972;7.830;2022-08-01T07:40:18;9.27;;;5.53;;
4206;SDS011;2117;47.972;7.830;2022-08-01T07:42:44;6.00;;;4.33;;
4206;SDS011;2117;47.972;7.830;2022-08-01T07:45:10;11.57;;;5.17;;
4206;SDS011;2117;47.972;7.830;2022-08-01T07:47:36;5.60;;;4.70;;
4206;SDS011;2117;47.972;7.830;2022-08-01T07:50:03;6.00;;;4.37;;
4206;SDS011;2117;47.972;7.830;2022-08-01T07:52:29;7.40;;;4.70;;
4206;SDS011;2117;47.972;7.830;2022-08-01T07:54:58;6.03;;;4.53;;
4206;SDS011;2117;47.972;7.830;2022-08-01T07:57:24;5.10;;;4.50;;
4206;SDS011;2117;47.972;7.830;2022-08-01T07:59:50;11.13;;;5.40;;
4206;SDS011;2117;47.972;7.830;2022-08-01T08:02:16;5.20;;;4.70;;
4206;SDS011;2117;47.972;7.830;2022-08-01T08:04:42;5.07;;;4.47;;
4206;SDS011;2117;47.972;7.830;2022-08-01T08:07:07;12.43;;;4.43;;
4206;SDS011;2117;47.972;7.830;2022-08-01T08:09:33;10.10;;;5.03;;
4206;SDS011;2117;47.972;7.830;2022-08-01T08:11:58;8.40;;;5.57;;
4206;SDS011;2117;47.972;7.830;2022-08-01T08:14:24;5.87;;;4.33;;
4206;SDS011;2117;47.972;7.830;2022-08-01T08:16:50;5.80;;;4.30;;
4206;SDS011;2117;47.972;7.830;2022-08-01T08:19:16;9.53;;;4.53;;
4206;SDS011;2117;47.972;7.830;2022-08-01T08:21:42;8.90;;;6.53;;
4206;SDS011;2117;47.972;7.830;2022-08-01T08:24:08;6.00;;;4.93;;
4206;SDS011;2117;47.972;7.830;2022-08-01T08:26:48;12.53;;;4.53;;
4206;SDS011;2117;47.972;7.830;2022-08-01T08:29:15;5.40;;;4.70;;
4206;SDS011;2117;47.972;7.830;2022-08-01T08:31:41;6.43;;;4.80;;
4206;SDS011;2117;47.972;7.830;2022-08-01T08:34:07;6.97;;;4.80;;
4206;SDS011;2117;47.972;7.830;2022-08-01T08:36:33;5.00;;;4.50;;
4206;SDS011;2117;47.972;7.830;2022-08-01T08:38:58;6.10;;;5.40;;
4206;SDS011;2117;47.972;7.830;2022-08-01T08:41:25;9.20;;;4.80;;
4206;SDS011;2117;47.972;7.830;2022-08-01T08:43:51;5.60;;;4.40;;
4206;SDS011;2117;47.972;7.830;2022-08-01T08:46:18;8.90;;;5.03;;
4206;SDS011;2117;47.972;7.830;2022-08-01T08:48:45;6.20;;;4.50;;
4206;SDS011;2117;47.972;7.830;2022-08-01T08:51:11;8.03;;;5.53;;
4206;SDS011;2117;47.972;7.830;2022-08-01T08:53:38;5.63;;;4.77;;
4206;SDS011;2117;47.972;7.830;2022-08-01T08:56:08;5.10;;;4.40;;
4206;SDS011;2117;47.972;7.830;2022-08-01T08:58:36;6.17;;;5.57;;
4206;SDS011;2117;47.972;7.830;2022-08-01T09:01:06;6.33;;;5.10;;
4206;SDS011;2117;47.972;7.830;2022-08-01T09:03:33;10.00;;;4.83;;
4206;SDS011;2117;47.972;7.830;2022-08-01T09:05:59;8.07;;;5.10;;
4206;SDS011;2117;47.972;7.830;2022-08-01T09:08:25;5.43;;;4.70;;
4206;SDS011;2117;47.972;7.830;2022-08-01T09:10:51;7.27;;;4.47;;
4206;SDS011;2117;47.972;7.830;2022-08-01T09:13:16;5.30;;;4.17;;
4206;SDS011;2117;47.972;7.830;2022-08-01T09:23:40;6.57;;;5.37;;
4206;SDS011;2117;47.972;7.830;2022-08-01T09:26:09;7.50;;;4.53;;
4206;SDS011;2117;47.972;7.830;2022-08-01T09:28:36;10.70;;;5.00;;
4206;SDS011;2117;47.972;7.830;2022-08-01T09:31:09;4.47;;;4.07;;
4206;SDS011;2117;47.972;7.830;2022-08-01T09:39:16;5.67;;;3.33;;
4206;SDS011;2117;47.972;7.830;2022-08-01T09:41:46;4.27;;;3.87;;
4206;SDS011;2117;47.972;7.830;2022-08-01T09:44:12;4.30;;;3.90;;
4206;SDS011;2117;47.972;7.830;2022-08-01T09:49:15;5.93;;;3.73;;
4206;SDS011;2117;47.972;7.830;2022-08-01T09:51:52;5.50;;;4.00;;
4206;SDS011;2117;47.972;7.830;2022-08-01T09:54:27;4.67;;;3.90;;
4206;SDS011;2117;47.972;7.830;2022-08-01T09:56:55;5.00;;;3.23;;
4206;SDS011;2117;47.972;7.830;2022-08-01T09:59:36;4.20;;;3.30;;
4206;SDS011;2117;47.972;7.830;2022-08-01T10:02:04;5.73;;;3.77;;
4206;SDS011;2117;47.972;7.830;2022-08-01T10:04:30;3.90;;;3.03;;
4206;SDS011;2117;47.972;7.830;2022-08-01T10:07:03;6.67;;;4.20;;
4206;SDS011;2117;47.972;7.830;2022-08-01T10:09:30;3.93;;;3.40;;
4206;SDS011;2117;47.972;7.830;2022-08-01T10:11:59;4.80;;;3.97;;
4206;SDS011;2117;47.972;7.830;2022-08-01T10:14:25;4.10;;;3.70;;
4206;SDS011;2117;47.972;7.830;2022-08-01T10:16:52;4.80;;;3.37;;
4206;SDS011;2117;47.972;7.830;2022-08-01T10:19:24;5.00;;;3.10;;
4206;SDS011;2117;47.972;7.830;2022-08-01T10:21:51;6.00;;;3.43;;
4206;SDS011;2117;47.972;7.830;2022-08-01T10:24:21;7.33;;;3.67;;
4206;SDS011;2117;47.972;7.830;2022-08-01T10:26:48;5.30;;;3.13;;
4206;SDS011;2117;47.972;7.830;2022-08-01T10:29:17;4.00;;;3.43;;
4206;SDS011;2117;47.972;7.830;2022-08-01T10:31:45;4.87;;;4.37;;
4206;SDS011;2117;47.972;7.830;2022-08-01T10:34:11;5.90;;;3.60;;
4206;SDS011;2117;47.972;7.830;2022-08-01T10:36:41;4.40;;;3.73;;
4206;SDS011;2117;47.972;7.830;2022-08-01T10:39:08;5.00;;;4.00;;
4206;SDS011;2117;47.972;7.830;2022-08-01T10:41:35;4.33;;;3.63;;
4206;SDS011;2117;47.972;7.830;2022-08-01T10:44:02;4.80;;;3.33;;
4206;SDS011;2117;47.972;7.830;2022-08-01T10:46:30;4.90;;;4.13;;
4206;SDS011;2117;47.972;7.830;2022-08-01T10:49:30;4.30;;;3.40;;
4206;SDS011;2117;47.972;7.830;2022-08-01T10:51:51;4.00;;;3.60;;
4206;SDS011;2117;47.972;7.830;2022-08-01T10:54:17;18.50;;;4.60;;
4206;SDS011;2117;47.972;7.830;2022-08-01T10:56:48;4.50;;;2.73;;
4206;SDS011;2117;47.972;7.830;2022-08-01T10:59:25;3.20;;;2.80;;
4206;SDS011;2117;47.972;7.830;2022-08-01T11:01:55;4.17;;;2.97;;
4206;SDS011;2117;47.972;7.830;2022-08-01T11:09:43;7.90;;;3.07;;
4206;SDS011;2117;47.972;7.830;2022-08-01T11:12:13;4.00;;;3.00;;
4206;SDS011;2117;47.972;7.830;2022-08-01T11:17:37;4.23;;;3.23;;
4206;SDS011;2117;47.972;7.830;2022-08-01T11:20:16;3.40;;;2.50;;
4206;SDS011;2117;47.972;7.830;2022-08-01T11:30:38;4.73;;;3.30;;
4206;SDS011;2117;47.972;7.830;2022-08-01T11:38:36;4.23;;;3.40;;
4206;SDS011;2117;47.972;7.830;2022-08-01T11:43:36;4.40;;;3.50;;
4206;SDS011;2117;47.972;7.830;2022-08-01T11:52:13;5.60;;;4.13;;
4206;SDS011;2117;47.972;7.830;2022-08-01T11:55:04;4.50;;;3.50;;
4206;SDS011;2117;47.972;7.830;2022-08-01T11:57:33;7.25;;;3.58;;
4206;SDS011;2117;47.972;7.830;2022-08-01T12:00:00;6.03;;;3.58;;
4206;SDS011;2117;47.972;7.830;2022-08-01T12:02:37;7.40;;;3.78;;
4206;SDS011;2117;47.972;7.830;2022-08-01T12:05:04;4.55;;;3.28;;
4206;SDS011;2117;47.972;7.830;2022-08-01T12:07:35;3.95;;;3.17;;
4206;SDS011;2117;47.972;7.830;2022-08-01T12:10:11;4.90;;;3.90;;
4206;SDS011;2117;47.972;7.830;2022-08-01T12:12:45;4.93;;;3.95;;
4206;SDS011;2117;47.972;7.830;2022-08-01T12:15:11;8.65;;;3.40;;
4206;SDS011;2117;47.972;7.830;2022-08-01T12:17:41;5.28;;;4.35;;
4206;SDS011;2117;47.972;7.830;2022-08-01T12:20:10;11.02;;;4.68;;
4206;SDS011;2117;47.972;7.830;2022-08-01T12:22:38;9.65;;;3.72;;
4206;SDS011;2117;47.972;7.830;2022-08-01T12:25:07;8.75;;;4.30;;
4206;SDS011;2117;47.972;7.830;2022-08-01T12:27:42;4.32;;;3.45;;
4206;SDS011;2117;47.972;7.830;2022-08-01T12:30:09;5.43;;;3.75;;
4206;SDS011;2117;47.972;7.830;2022-08-01T12:32:40;5.10;;;4.00;;
4206;SDS011;2117;47.972;7.830;2022-08-01T12:35:11;6.47;;;4.43;;
4206;SDS011;2117;47.972;7.830;2022-08-01T12:37:42;7.80;;;4.22;;
4206;SDS011;2117;47.972;7.830;2022-08-01T12:40:19;6.88;;;3.58;;
4206;SDS011;2117;47.972;7.830;2022-08-01T12:42:55;6.80;;;4.40;;
4206;SDS011;2117;47.972;7.830;2022-08-01T12:45:26;3.92;;;3.53;;
4206;SDS011;2117;47.972;7.830;2022-08-01T12:47:54;4.85;;;3.90;;
4206;SDS011;2117;47.972;7.830;2022-08-01T12:50:23;4.28;;;3.85;;
4206;SDS011;2117;47.972;7.830;2022-08-01T12:52:50;6.93;;;3.90;;
4206;SDS011;2117;47.972;7.830;2022-08-01T12:55:19;5.68;;;3.60;;
4206;SDS011;2117;47.972;7.830;2022-08-01T12:57:47;6.88;;;4.40;;
4206;SDS011;2117;47.972;7.830;2022-08-01T13:03:01;4.03;;;3.42;;
4206;SDS011;2117;47.972;7.830;2022-08-01T13:05:40;5.10;;;4.20;;
4206;SDS011;2117;47.972;7.830;2022-08-01T13:08:09;5.00;;;4.10;;
4206;SDS011;2117;47.972;7.830;2022-08-01T13:10:38;5.75;;;4.25;;
4206;SDS011;2117;47.972;7.830;2022-08-01T13:13:05;6.00;;;4.18;;
4206;SDS011;2117;47.972;7.830;2022-08-01T13:15:34;6.00;;;4.53;;
4206;SDS011;2117;47.972;7.830;2022-08-01T13:18:21;5.97;;;4.60;;
4206;SDS011;2117;47.972;7.830;2022-08-01T13:20:48;8.18;;;4.38;;
4206;SDS011;2117;47.972;7.830;2022-08-01T13:23:15;5.47;;;4.65;;
4206;SDS011;2117;47.972;7.830;2022-08-01T13:25:54;5.85;;;4.90;;
4206;SDS011;2117;47.972;7.830;2022-08-01T13:30:51;7.28;;;5.22;;
4206;SDS011;2117;47.972;7.830;2022-08-01T13:33:18;6.45;;;4.60;;
4206;SDS011;2117;47.972;7.830;2022-08-01T13:35:43;8.57;;;4.15;;
4206;SDS011;2117;47.972;7.830;2022-08-01T13:38:09;5.82;;;4.47;;
4206;SDS011;2117;47.972;7.830;2022-08-01T13:40:35;5.97;;;4.18;;
4206;SDS011;2117;47.972;7.830;2022-08-01T13:43:00;5.95;;;4.22;;
4206;SDS011;2117;47.972;7.830;2022-08-01T13:45:26;6.57;;;4.45;;
4206;SDS011;2117;47.972;7.830;2022-08-01T13:47:51;5.28;;;4.05;;
4206;SDS011;2117;47.972;7.830;2022-08-01T13:50:17;7.35;;;4.15;;
4206;SDS011;2117;47.972;7.830;2022-08-01T13:52:43;4.57;;;4.18;;
4206;SDS011;2117;47.972;7.830;2022-08-01T13:55:08;7.03;;;4.57;;
4206;SDS011;2117;47.972;7.830;2022-08-01T13:57:34;6.88;;;4.18;;
4206;SDS011;2117;47.972;7.830;2022-08-01T13:59:59;5.65;;;3.45;;
4206;SDS011;2117;47.972;7.830;2022-08-01T14:02:28;7.15;;;4.82;;
4206;SDS011;2117;47.972;7.830;2022-08-01T14:04:54;6.55;;;4.50;;
4206;SDS011;2117;47.972;7.830;2022-08-01T14:07:20;8.75;;;5.43;;
4206;SDS011;2117;47.972;7.830;2022-08-01T14:09:46;8.05;;;5.03;;
4206;SDS011;2117;47.972;7.830;2022-08-01T14:12:12;6.07;;;4.85;;
4206;SDS011;2117;47.972;7.830;2022-08-01T14:14:37;4.70;;;3.97;;
4206;SDS011;2117;47.972;7.830;2022-08-01T14:17:03;5.63;;;4.50;;
4206;SDS011;2117;47.972;7.830;2022-08-01T14:19:29;13.73;;;4.63;;
4206;SDS011;2117;47.972;7.830;2022-08-01T14:21:55;5.80;;;5.07;;
4206;SDS011;2117;47.972;7.830;2022-08-01T14:24:21;5.00;;;4.50;;
4206;SDS011;2117;47.972;7.830;2022-08-01T14:26:47;5.63;;;5.10;;
4206;SDS011;2117;47.972;7.830;2022-08-01T14:29:13;6.90;;;5.50;;
4206;SDS011;2117;47.972;7.830;2022-08-01T14:31:39;7.47;;;4.85;;
4206;SDS011;2117;47.972;7.830;2022-08-01T14:34:05;8.27;;;4.90;;
4206;SDS011;2117;47.972;7.830;2022-08-01T14:36:30;7.35;;;5.53;;
4206;SDS011;2117;47.972;7.830;2022-08-01T14:38:56;5.60;;;4.90;;
4206;SDS011;2117;47.972;7.830;2022-08-01T14:41:21;6.07;;;4.78;;
4206;SDS011;2117;47.972;7.830;2022-08-01T14:43:47;6.40;;;4.55;;
4206;SDS011;2117;47.972;7.830;2022-08-01T14:46:13;4.60;;;4.20;;
4206;SDS011;2117;47.972;7.830;2022-08-01T14:48:38;5.28;;;4.53;;
4206;SDS011;2117;47.972;7.830;2022-08-01T14:51:04;5.57;;;4.97;;
4206;SDS011;2117;47.972;7.830;2022-08-01T14:53:32;11.33;;;5.20;;
4206;SDS011;2117;47.972;7.830;2022-08-01T14:56:00;5.70;;;5.10;;
4206;SDS011;2117;47.972;7.830;2022-08-01T14:58:26;9.47;;;4.57;;
4206;SDS011;2117;47.972;7.830;2022-08-01T15:00:52;9.83;;;5.43;;
4206;SDS011;2117;47.972;7.830;2022-08-01T15:03:19;6.33;;;5.50;;
4206;SDS011;2117;47.972;7.830;2022-08-01T15:05:47;5.33;;;4.83;;
4206;SDS011;2117;47.972;7.830;2022-08-01T15:08:13;5.83;;;4.27;;
4206;SDS011;2117;47.972;7.830;2022-08-01T15:10:39;5.53;;;3.83;;
4206;SDS011;2117;47.972;7.830;2022-08-01T15:13:05;5.17;;;4.67;;
4206;SDS011;2117;47.972;7.830;2022-08-01T15:15:30;9.20;;;4.70;;
4206;SDS011;2117;47.972;7.830;2022-08-01T15:17:56;6.93;;;5.00;;
4206;SDS011;2117;47.972;7.830;2022-08-01T15:20:22;4.93;;;4.00;;
4206;SDS011;2117;47.972;7.830;2022-08-01T15:22:48;6.83;;;4.83;;
4206;SDS011;2117;47.972;7.830;2022-08-01T15:25:14;7.00;;;5.10;;
4206;SDS011;2117;47.972;7.830;2022-08-01T15:27:39;6.73;;;4.50;;
4206;SDS011;2117;47.972;7.830;2022-08-01T15:30:05;6.50;;;4.77;;
4206;SDS011;2117;47.972;7.830;2022-08-01T15:32:31;6.23;;;4.80;;
4206;SDS011;2117;47.972;7.830;2022-08-01T15:34:57;6.13;;;5.00;;
4206;SDS011;2117;47.972;7.830;2022-08-01T15:37:22;5.17;;;4.67;;
4206;SDS011;2117;47.972;7.830;2022-08-01T15:39:48;7.37;;;4.00;;
4206;SDS011;2117;47.972;7.830;2022-08-01T15:42:14;5.13;;;4.63;;
4206;SDS011;2117;47.972;7.830;2022-08-01T15:44:41;5.40;;;4.63;;
4206;SDS011;2117;47.972;7.830;2022-08-01T15:47:07;5.75;;;5.15;;
4206;SDS011;2117;47.972;7.830;2022-08-01T15:49:33;4.80;;;4.28;;
4206;SDS011;2117;47.972;7.830;2022-08-01T15:52:02;6.60;;;4.85;;
4206;SDS011;2117;47.972;7.830;2022-08-01T15:54:28;5.93;;;5.00;;
4206;SDS011;2117;47.972;7.830;2022-08-01T15:56:54;6.07;;;4.73;;
4206;SDS011;2117;47.972;7.830;2022-08-01T15:59:19;7.00;;;4.63;;
4206;SDS011;2117;47.972;7.830;2022-08-01T16:01:45;9.03;;;4.77;;
4206;SDS011;2117;47.972;7.830;2022-08-01T16:04:13;5.67;;;5.13;;
4206;SDS011;2117;47.972;7.830;2022-08-01T16:06:40;6.20;;;4.57;;
4206;SDS011;2117;47.972;7.830;2022-08-01T16:09:06;6.00;;;5.20;;
4206;SDS011;2117;47.972;7.830;2022-08-01T16:11:33;9.85;;;4.72;;
4206;SDS011;2117;47.972;7.830;2022-08-01T16:13:58;12.40;;;5.77;;
4206;SDS011;2117;47.972;7.830;2022-08-01T16:16:24;7.83;;;5.03;;
4206;SDS011;2117;47.972;7.830;2022-08-01T16:18:50;8.23;;;5.07;;
4206;SDS011;2117;47.972;7.830;2022-08-01T16:21:15;6.80;;;4.80;;
4206;SDS011;2117;47.972;7.830;2022-08-01T16:23:41;5.30;;;4.73;;
4206;SDS011;2117;47.972;7.830;2022-08-01T16:26:08;6.27;;;4.53;;
4206;SDS011;2117;47.972;7.830;2022-08-01T16:28:35;10.87;;;5.20;;
4206;SDS011;2117;47.972;7.830;2022-08-01T16:31:01;9.10;;;4.67;;
4206;SDS011;2117;47.972;7.830;2022-08-01T16:33:28;8.03;;;5.50;;
4206;SDS011;2117;47.972;7.830;2022-08-01T16:35:54;5.37;;;4.83;;
4206;SDS011;2117;47.972;7.830;2022-08-01T16:38:19;8.63;;;4.53;;
4206;SDS011;2117;47.972;7.830;2022-08-01T16:40:47;11.83;;;4.70;;
4206;SDS011;2117;47.972;7.830;2022-08-01T16:43:17;7.20;;;4.67;;
4206;SDS011;2117;47.972;7.830;2022-08-01T16:45:44;6.00;;;4.90;;
4206;SDS011;2117;47.972;7.830;2022-08-01T16:48:10;6.20;;;5.17;;
4206;SDS011;2117;47.972;7.830;2022-08-01T16:50:39;5.23;;;4.73;;
4206;SDS011;2117;47.972;7.830;2022-08-01T16:53:04;19.30;;;4.30;;
4206;SDS011;2117;47.972;7.830;2022-08-01T16:55:30;7.20;;;4.83;;
4206;SDS011;2117;47.972;7.830;2022-08-01T16:57:56;6.50;;;4.80;;
4206;SDS011;2117;47.972;7.830;2022-08-01T17:00:22;8.10;;;4.40;;
4206;SDS011;2117;47.972;7.830;2022-08-01T17:02:50;5.83;;;4.23;;
4206;SDS011;2117;47.972;7.830;2022-08-01T17:05:16;5.10;;;4.60;;
4206;SDS011;2117;47.972;7.830;2022-08-01T17:07:44;5.30;;;3.60;;
4206;SDS011;2117;47.972;7.830;2022-08-01T17:10:09;5.70;;;4.03;;
4206;SDS011;2117;47.972;7.830;2022-08-01T17:12:35;8.13;;;3.90;;
4206;SDS011;2117;47.972;7.830;2022-08-01T17:15:03;7.53;;;4.10;;
4206;SDS011;2117;47.972;7.830;2022-08-01T17:17:30;3.53;;;2.97;;
4206;SDS011;2117;47.972;7.830;2022-08-01T17:19:55;6.63;;;3.37;;
4206;SDS011;2117;47.972;7.830;2022-08-01T17:22:21;5.80;;;3.20;;
4206;SDS011;2117;47.972;7.830;2022-08-01T17:24:46;7.57;;;3.40;;
4206;SDS011;2117;47.972;7.830;2022-08-01T17:27:14;5.30;;;3.00;;
4206;SDS011;2117;47.972;7.830;2022-08-01T17:29:40;7.23;;;3.23;;
4206;SDS011;2117;47.972;7.830;2022-08-01T17:32:06;6.40;;;2.53;;
4206;SDS011;2117;47.972;7.830;2022-08-01T17:34:31;3.97;;;2.90;;
4206;SDS011;2117;47.972;7.830;2022-08-01T17:36:58;8.63;;;2.57;;
4206;SDS011;2117;47.972;7.830;2022-08-01T17:39:24;5.77;;;3.03;;
4206;SDS011;2117;47.972;7.830;2022-08-01T17:41:50;9.80;;;4.37;;
4206;SDS011;2117;47.972;7.830;2022-08-01T17:44:16;8.03;;;3.33;;
4206;SDS011;2117;47.972;7.830;2022-08-01T17:46:42;11.83;;;3.60;;
4206;SDS011;2117;47.972;7.830;2022-08-01T17:49:07;10.00;;;3.83;;
4206;SDS011;2117;47.972;7.830;2022-08-01T17:51:33;10.80;;;4.03;;
4206;SDS011;2117;47.972;7.830;2022-08-01T17:53:59;5.00;;;3.63;;
4206;SDS011;2117;47.972;7.830;2022-08-01T17:56:25;4.53;;;3.13;;
4206;SDS011;2117;47.972;7.830;2022-08-01T17:58:51;6.03;;;3.47;;
4206;SDS011;2117;47.972;7.830;2022-08-01T18:01:17;4.33;;;3.17;;
4206;SDS011;2117;47.972;7.830;2022-08-01T18:03:43;6.80;;;3.50;;
4206;SDS011;2117;47.972;7.830;2022-08-01T18:06:09;22.90;;;5.63;;
4206;SDS011;2117;47.972;7.830;2022-08-01T18:08:41;14.43;;;5.03;;
4206;SDS011;2117;47.972;7.830;2022-08-01T18:11:07;12.97;;;4.47;;
4206;SDS011;2117;47.972;7.830;2022-08-01T18:13:33;8.90;;;3.90;;
4206;SDS011;2117;47.972;7.830;2022-08-01T18:15:59;9.87;;;4.30;;
4206;SDS011;2117;47.972;7.830;2022-08-01T18:18:24;6.50;;;3.70;;
4206;SDS011;2117;47.972;7.830;2022-08-01T18:20:51;9.03;;;3.20;;
4206;SDS011;2117;47.972;7.830;2022-08-01T18:23:17;12.23;;;3.53;;
4206;SDS011;2117;47.972;7.830;2022-08-01T18:25:42;6.20;;;3.30;;
4206;SDS011;2117;47.972;7.830;2022-08-01T18:28:09;6.27;;;3.80;;
4206;SDS011;2117;47.972;7.830;2022-08-01T18:30:34;4.57;;;3.53;;
4206;SDS011;2117;47.972;7.830;2022-08-01T18:33:00;7.00;;;4.50;;
4206;SDS011;2117;47.972;7.830;2022-08-01T18:35:26;4.53;;;3.53;;
4206;SDS011;2117;47.972;7.830;2022-08-01T18:37:51;9.23;;;3.50;;
4206;SDS011;2117;47.972;7.830;2022-08-01T18:40:19;3.90;;;3.27;;
4206;SDS011;2117;47.972;7.830;2022-08-01T18:42:44;7.10;;;4.47;;
4206;SDS011;2117;47.972;7.830;2022-08-01T18:45:10;5.60;;;3.50;;
4206;SDS011;2117;47.972;7.830;2022-08-01T18:47:36;5.73;;;3.30;;
4206;SDS011;2117;47.972;7.830;2022-08-01T18:50:03;9.93;;;3.80;;
4206;SDS011;2117;47.972;7.830;2022-08-01T18:52:29;8.50;;;3.70;;
4206;SDS011;2117;47.972;7.830;2022-08-01T18:54:56;7.40;;;3.60;;
4206;SDS011;2117;47.972;7.830;2022-08-01T18:57:21;10.00;;;4.63;;
4206;SDS011;2117;47.972;7.830;2022-08-01T18:59:47;6.03;;;3.93;;
4206;SDS011;2117;47.972;7.830;2022-08-01T19:02:13;6.43;;;3.90;;
4206;SDS011;2117;47.972;7.830;2022-08-01T19:04:38;5.40;;;3.63;;
4206;SDS011;2117;47.972;7.830;2022-08-01T19:07:04;9.60;;;4.53;;
4206;SDS011;2117;47.972;7.830;2022-08-01T19:09:30;3.80;;;3.23;;
4206;SDS011;2117;47.972;7.830;2022-08-01T19:11:55;5.10;;;3.10;;
4206;SDS011;2117;47.972;7.830;2022-08-01T19:14:21;6.50;;;3.50;;
4206;SDS011;2117;47.972;7.830;2022-08-01T19:16:46;4.47;;;3.10;;
4206;SDS011;2117;47.972;7.830;2022-08-01T19:19:12;7.53;;;4.33;;
4206;SDS011;2117;47.972;7.830;2022-08-01T19:21:38;4.13;;;3.60;;
4206;SDS011;2117;47.972;7.830;2022-08-01T19:24:05;5.20;;;3.60;;
4206;SDS011;2117;47.972;7.830;2022-08-01T19:26:45;4.67;;;3.57;;
4206;SDS011;2117;47.972;7.830;2022-08-01T19:29:19;4.67;;;3.33;;
4206;SDS011;2117;47.972;7.830;2022-08-01T19:31:47;6.33;;;4.17;;
4206;SDS011;2117;47.972;7.830;2022-08-01T19:34:14;3.80;;;2.70;;
4206;SDS011;2117;47.972;7.830;2022-08-01T19:36:42;5.07;;;3.00;;
4206;SDS011;2117;47.972;7.830;2022-08-01T19:39:11;5.60;;;3.33;;